createdAt,value
2018-12-29T00:02:10.352Z,22.20
2018-12-29T00:04:40.700Z,17.50
2018-12-29T00:07:10.408Z,16.17
2018-12-29T00:09:40.008Z,20.70
2018-12-29T00:12:09.608Z,21.87
2018-12-29T00:14:39.324Z,20.10
2018-12-29T00:17:08.986Z,21.03
2018-12-29T00:19:39.212Z,17.00
2018-12-29T00:22:09.583Z,19.63
2018-12-29T00:24:39.924Z,22.90
2018-12-29T00:27:09.604Z,21.47
2018-12-29T00:29:39.244Z,21.97
2018-12-29T00:32:08.817Z,24.20
2018-12-29T00:34:38.411Z,21.50
2018-12-29T00:37:08.643Z,23.30
2018-12-29T00:39:38.330Z,22.73
2018-12-29T00:42:07.971Z,26.23
2018-12-29T00:44:37.818Z,23.87
2018-12-29T00:47:08.155Z,21.87
2018-12-29T00:49:38.222Z,23.67
2018-12-29T00:52:08.512Z,24.63
2018-12-29T00:54:39.293Z,27.33
2018-12-29T00:57:09.669Z,24.77
2018-12-29T00:59:40.441Z,26.70
2018-12-29T01:02:10.807Z,25.10
2018-12-29T01:04:41.359Z,27.40
2018-12-29T01:07:11.732Z,27.40
2018-12-29T01:09:42.489Z,30.40
2018-12-29T01:12:12.988Z,31.10
2018-12-29T01:14:42.575Z,28.50
2018-12-29T01:17:12.821Z,29.27
2018-12-29T01:19:42.508Z,31.00
2018-12-29T01:22:12.750Z,30.73
2018-12-29T01:24:43.556Z,30.60
2018-12-29T01:27:13.901Z,29.87
2018-12-29T01:29:43.632Z,31.27
2018-12-29T01:32:13.863Z,31.33
2018-12-29T01:34:44.680Z,33.37
2018-12-29T01:37:15.023Z,30.13
2018-12-29T01:39:44.723Z,28.97
2018-12-29T01:42:14.952Z,29.67
2018-12-29T01:44:45.338Z,29.37
2018-12-29T01:47:15.668Z,28.70
2018-12-29T01:49:45.376Z,25.73
2018-12-29T01:52:15.609Z,26.43
2018-12-29T01:54:45.960Z,24.50
2018-12-29T01:57:16.304Z,25.60
2018-12-29T01:59:45.993Z,25.77
2018-12-29T02:02:16.232Z,24.50
2018-12-29T02:04:45.951Z,30.40
2018-12-29T02:07:15.539Z,31.10
2018-12-29T02:09:45.133Z,26.30
2018-12-29T02:12:15.385Z,31.00
2018-12-29T02:14:45.738Z,27.77
2018-12-29T02:17:16.100Z,24.27
2018-12-29T02:19:45.796Z,28.07
2018-12-29T02:22:16.056Z,28.87
2018-12-29T02:24:45.728Z,25.00
2018-12-29T02:27:15.988Z,25.23
2018-12-29T02:29:45.705Z,27.43
2018-12-29T02:32:15.976Z,24.23
2018-12-29T02:34:46.304Z,22.50
2018-12-29T02:37:16.671Z,23.63
2018-12-29T02:39:47.009Z,24.47
2018-12-29T02:42:17.344Z,25.10
2018-12-29T02:44:48.592Z,22.73
2018-12-29T02:47:18.252Z,22.80
2018-12-29T02:49:47.829Z,21.27
2018-12-29T02:52:18.152Z,24.90
2018-12-29T02:54:48.494Z,20.20
2018-12-29T02:57:18.188Z,21.53
2018-12-29T02:59:48.412Z,21.30
2018-12-29T03:02:18.784Z,21.10
2018-12-29T03:04:48.483Z,21.80
2018-12-29T03:07:18.772Z,23.80
2018-12-29T03:09:48.457Z,25.10
2018-12-29T03:12:18.061Z,19.70
2018-12-29T03:14:48.305Z,21.07
2018-12-29T03:17:18.644Z,25.03
2018-12-29T03:19:48.329Z,20.23
2018-12-29T03:22:18.563Z,23.13
2018-12-29T03:24:48.261Z,20.90
2018-12-29T03:27:18.524Z,19.67
2018-12-29T03:29:48.873Z,18.93
2018-12-29T03:32:19.281Z,21.63
2018-12-29T03:34:49.011Z,19.13
2018-12-29T03:37:19.244Z,24.60
2018-12-29T03:39:48.951Z,20.20
2018-12-29T03:42:19.192Z,20.70
2018-12-29T03:44:49.626Z,19.83
2018-12-29T03:47:20.881Z,19.20
2018-12-29T03:49:51.237Z,22.70
2018-12-29T03:52:21.552Z,20.90
2018-12-29T03:54:51.926Z,22.07
2018-12-29T03:57:22.265Z,20.87
2018-12-29T03:59:52.624Z,20.77
2018-12-29T04:02:22.959Z,20.30
2018-12-29T04:04:53.304Z,19.50
2018-12-29T04:07:22.990Z,21.93
2018-12-29T04:09:53.263Z,20.53
2018-12-29T04:12:26.972Z,20.50
2018-12-29T04:14:57.236Z,20.53
2018-12-29T04:17:27.579Z,21.77
2018-12-29T04:19:57.942Z,21.40
2018-12-29T04:22:28.262Z,20.33
2018-12-29T04:24:58.602Z,23.60
2018-12-29T04:27:28.939Z,26.47
2018-12-29T04:29:59.308Z,24.53
2018-12-29T04:32:28.975Z,21.27
2018-12-29T04:34:59.237Z,20.67
2018-12-29T04:37:29.589Z,24.40
2018-12-29T04:39:59.945Z,23.30
2018-12-29T04:42:29.620Z,24.40
2018-12-29T04:44:59.882Z,21.27
2018-12-29T04:47:29.656Z,24.20
2018-12-29T04:50:00.032Z,24.27
2018-12-29T04:52:30.040Z,20.70
2018-12-29T04:55:00.327Z,19.77
2018-12-29T04:57:30.640Z,24.00
2018-12-29T05:00:01.004Z,20.83
2018-12-29T05:02:31.333Z,22.53
2018-12-29T05:05:02.028Z,20.80
2018-12-29T05:07:31.728Z,21.03
2018-12-29T05:10:01.981Z,24.10
2018-12-29T05:12:32.408Z,20.97
2018-12-29T05:15:02.739Z,23.97
2018-12-29T05:17:32.452Z,20.90
2018-12-29T05:20:02.700Z,21.50
2018-12-29T05:22:33.064Z,22.42
2018-12-29T05:25:03.397Z,23.00
2018-12-29T05:27:33.102Z,20.90
2018-12-29T05:30:03.357Z,23.67
2018-12-29T05:32:33.698Z,21.07
2018-12-29T05:35:04.023Z,22.80
2018-12-29T05:37:33.739Z,17.83
2018-12-29T05:40:04.165Z,26.67
2018-12-29T05:42:34.504Z,20.97
2018-12-29T05:45:04.952Z,23.67
2018-12-29T05:47:35.319Z,24.30
2018-12-29T05:50:06.186Z,21.13
2018-12-29T05:52:36.511Z,22.50
2018-12-29T05:55:06.286Z,25.07
2018-12-29T05:57:36.554Z,27.73
2018-12-29T06:00:07.005Z,25.13
2018-12-29T06:02:36.691Z,23.07
2018-12-29T06:05:06.927Z,19.80
2018-12-29T06:07:37.293Z,21.33
2018-12-29T06:10:07.637Z,20.87
2018-12-29T06:12:37.367Z,31.03
2018-12-29T06:15:07.594Z,26.60
2018-12-29T06:17:37.276Z,24.90
2018-12-29T06:20:07.543Z,23.67
2018-12-29T06:22:37.880Z,24.85
2018-12-29T06:25:08.211Z,16.10
2018-12-29T06:27:37.900Z,17.50
2018-12-29T06:30:08.177Z,15.60
2018-12-29T06:32:38.509Z,16.83
2018-12-29T06:35:08.837Z,22.07
2018-12-29T06:37:39.177Z,17.30
2018-12-29T06:40:08.883Z,16.53
2018-12-29T06:42:39.141Z,17.40
2018-12-29T06:45:09.473Z,16.50
2018-12-29T06:47:39.856Z,13.67
2018-12-29T06:50:10.189Z,14.30
2018-12-29T06:52:40.531Z,14.27
2018-12-29T06:55:10.204Z,12.17
2018-12-29T06:57:40.608Z,12.80
2018-12-29T07:00:10.316Z,11.13
2018-12-29T07:02:40.566Z,10.47
2018-12-29T07:05:10.236Z,12.13
2018-12-29T07:07:40.518Z,10.43
2018-12-29T07:10:10.185Z,13.57
2018-12-29T07:12:40.508Z,8.20
2018-12-29T07:15:10.844Z,17.80
2018-12-29T07:17:41.172Z,5.20
2018-12-29T07:20:11.519Z,8.77
2018-12-29T07:22:41.205Z,7.20
2018-12-29T07:25:11.465Z,12.20
2018-12-29T07:27:41.147Z,12.33
2018-12-29T07:30:11.411Z,8.83
2018-12-29T07:32:41.104Z,10.33
2018-12-29T07:35:10.675Z,8.63
2018-12-29T07:37:40.948Z,12.47
2018-12-29T07:40:11.312Z,12.17
2018-12-29T07:42:41.000Z,12.73
2018-12-29T07:45:11.237Z,14.27
2018-12-29T07:47:40.944Z,11.60
2018-12-29T07:50:11.208Z,16.57
2018-12-29T07:52:40.867Z,19.60
2018-12-29T07:55:11.124Z,16.03
2018-12-29T07:57:41.616Z,7.60
2018-12-29T08:00:11.982Z,15.67
2018-12-29T08:02:42.312Z,11.80
2018-12-29T08:05:12.660Z,17.53
2018-12-29T08:07:42.345Z,12.57
2018-12-29T08:10:12.794Z,11.60
2018-12-29T08:12:42.495Z,15.40
2018-12-29T08:15:13.404Z,11.80
2018-12-29T08:17:43.716Z,14.27
2018-12-29T08:20:13.520Z,17.23
2018-12-29T08:22:43.764Z,12.87
2018-12-29T08:25:14.504Z,11.80
2018-12-29T08:27:44.192Z,13.30
2018-12-29T08:30:14.120Z,13.70
2018-12-29T08:32:44.372Z,14.67
2018-12-29T08:35:14.768Z,10.70
2018-12-29T08:37:44.508Z,10.87
2018-12-29T08:40:15.620Z,11.87
2018-12-29T08:42:45.291Z,10.57
2018-12-29T08:45:15.592Z,11.43
2018-12-29T08:47:45.275Z,12.10
2018-12-29T08:50:15.557Z,7.47
2018-12-29T08:52:45.335Z,9.97
2018-12-29T08:55:15.651Z,13.27
2018-12-29T08:57:45.445Z,16.52
2018-12-29T09:00:15.085Z,12.70
2018-12-29T09:02:45.337Z,10.57
2018-12-29T09:05:15.059Z,13.33
2018-12-29T09:07:44.692Z,11.50
2018-12-29T09:10:14.961Z,13.67
2018-12-29T09:12:44.667Z,10.70
2018-12-29T09:15:14.941Z,13.70
2018-12-29T09:17:44.640Z,10.57
2018-12-29T09:20:14.257Z,17.07
2018-12-29T09:22:44.500Z,9.43
2018-12-29T09:25:14.835Z,6.77
2018-12-29T09:27:44.512Z,7.67
2018-12-29T09:30:14.226Z,10.63
2018-12-29T09:32:43.940Z,13.87
2018-12-29T09:35:14.212Z,17.73
2018-12-29T09:37:43.920Z,12.37
2018-12-29T09:40:13.534Z,11.03
2018-12-29T09:42:43.170Z,8.07
2018-12-29T09:45:13.681Z,14.53
2018-12-29T09:47:43.285Z,10.37
2018-12-29T09:50:13.568Z,9.33
2018-12-29T09:52:43.912Z,9.20
2018-12-29T09:55:14.281Z,8.17
2018-12-29T09:57:43.966Z,11.23
2018-12-29T10:00:14.206Z,9.03
2018-12-29T10:02:43.897Z,8.80
2018-12-29T10:05:13.512Z,6.13
2018-12-29T10:07:43.759Z,8.33
2018-12-29T10:10:14.096Z,12.33
2018-12-29T10:12:44.433Z,8.73
2018-12-29T10:15:14.768Z,12.10
2018-12-29T10:17:44.471Z,11.73
2018-12-29T10:20:14.725Z,9.20
2018-12-29T10:22:45.084Z,15.43
2018-12-29T10:25:15.435Z,11.47
2018-12-29T10:27:45.799Z,12.47
2018-12-29T10:30:16.140Z,8.30
2018-12-29T10:32:46.487Z,5.90
2018-12-29T10:35:16.172Z,7.60
2018-12-29T10:37:45.885Z,11.20
2018-12-29T10:40:16.264Z,10.80
2018-12-29T10:42:45.955Z,6.53
2018-12-29T10:45:15.563Z,6.67
2018-12-29T10:47:45.152Z,9.93
2018-12-29T10:50:15.428Z,7.43
2018-12-29T10:52:45.772Z,7.23
2018-12-29T10:55:16.353Z,9.37
2018-12-29T10:57:46.680Z,11.40
2018-12-29T11:00:16.415Z,9.63
2018-12-29T11:02:46.639Z,12.97
2018-12-29T11:05:16.347Z,5.83
2018-12-29T11:07:45.935Z,6.97
2018-12-29T11:10:15.555Z,6.33
2018-12-29T11:12:45.232Z,4.17
2018-12-29T11:15:16.601Z,7.17
2018-12-29T11:17:47.044Z,6.63
2018-12-29T11:20:16.826Z,11.37
2018-12-29T11:22:58.424Z,10.40
2018-12-29T11:25:28.028Z,5.97
2018-12-29T11:27:57.615Z,9.20
2018-12-29T11:30:27.197Z,6.70
2018-12-29T11:32:56.768Z,10.33
2018-12-29T11:35:29.012Z,7.83
2018-12-29T11:37:57.600Z,8.73
2018-12-29T11:40:27.857Z,6.70
2018-12-29T11:42:57.516Z,6.13
2018-12-29T11:45:27.197Z,6.22
2018-12-29T11:47:56.904Z,5.67
2018-12-29T11:50:27.136Z,5.47
2018-12-29T11:52:56.868Z,8.43
2018-12-29T11:55:27.117Z,8.37
2018-12-29T11:57:56.907Z,5.77
2018-12-29T12:00:27.148Z,5.30
2018-12-29T12:02:56.849Z,4.63
2018-12-29T12:05:27.124Z,6.43
2018-12-29T12:07:56.804Z,9.17
2018-12-29T12:10:27.401Z,5.80
2018-12-29T12:12:57.736Z,7.57
2018-12-29T12:15:28.103Z,4.83
2018-12-29T12:17:57.866Z,8.23
2018-12-29T12:20:28.480Z,5.73
2018-12-29T12:22:58.820Z,5.67
2018-12-29T12:25:29.160Z,5.10
2018-12-29T12:28:00.047Z,4.93
2018-12-29T12:30:30.375Z,5.93
2018-12-29T12:33:00.724Z,8.13
2018-12-29T12:35:30.541Z,6.77
2018-12-29T12:38:00.807Z,5.80
2018-12-29T12:40:30.539Z,8.77
2018-12-29T12:43:00.892Z,6.90
2018-12-29T12:45:31.296Z,7.10
2018-12-29T12:48:05.021Z,9.53
2018-12-29T12:50:32.929Z,7.50
2018-12-29T12:53:02.515Z,7.20
2018-12-29T12:55:32.484Z,10.60
2018-12-29T12:58:02.421Z,5.80
2018-12-29T13:00:32.352Z,7.03
2018-12-29T13:03:02.303Z,7.43
2018-12-29T13:05:32.821Z,14.07
2018-12-29T13:08:02.408Z,8.07
2018-12-29T13:10:32.725Z,6.00
2018-12-29T13:13:03.150Z,8.97
2018-12-29T13:15:33.753Z,8.55
2018-12-29T13:18:12.874Z,8.87
2018-12-29T13:20:39.897Z,8.63
2018-12-29T13:23:10.268Z,5.83
2018-12-29T13:25:40.024Z,6.77
2018-12-29T13:28:10.284Z,7.17
2018-12-29T13:30:40.048Z,8.87
2018-12-29T13:33:09.628Z,7.63
2018-12-29T13:35:39.380Z,6.63
2018-12-29T13:38:08.972Z,7.43
2018-12-29T13:40:38.914Z,7.27
2018-12-29T13:43:09.182Z,8.13
2018-12-29T13:45:39.452Z,11.77
2018-12-29T13:48:09.062Z,8.10
2018-12-29T13:50:39.470Z,8.30
2018-12-29T13:53:09.828Z,6.97
2018-12-29T13:55:39.760Z,7.63
2018-12-29T13:58:10.122Z,6.10
2018-12-29T14:00:39.888Z,6.93
2018-12-29T14:03:10.519Z,10.23
2018-12-29T14:05:40.200Z,12.17
2018-12-29T14:08:09.809Z,11.47
2018-12-29T14:10:40.059Z,7.03
2018-12-29T14:13:09.742Z,8.37
2018-12-29T14:15:39.352Z,10.10
2018-12-29T14:18:09.049Z,9.17
2018-12-29T14:20:38.683Z,6.20
2018-12-29T14:23:08.273Z,9.50
2018-12-29T14:25:39.135Z,5.87
2018-12-29T14:28:08.948Z,6.27
2018-12-29T14:30:39.198Z,11.23
2018-12-29T14:33:08.896Z,9.27
2018-12-29T14:35:38.905Z,7.23
2018-12-29T14:38:09.206Z,7.97
2018-12-29T14:40:39.609Z,8.00
2018-12-29T14:43:09.422Z,8.17
2018-12-29T14:45:39.056Z,9.03
2018-12-29T14:48:09.694Z,5.93
2018-12-29T14:50:39.378Z,5.73
2018-12-29T14:53:09.655Z,6.83
2018-12-29T14:55:39.424Z,10.33
2018-12-29T14:58:09.672Z,8.80
2018-12-29T15:00:39.375Z,9.27
2018-12-29T15:03:09.012Z,8.43
2018-12-29T15:05:39.341Z,9.53
2018-12-29T15:08:09.715Z,7.20
2018-12-29T15:10:39.590Z,9.67
2018-12-29T15:13:20.844Z,7.40
2018-12-29T15:15:50.470Z,5.57
2018-12-29T15:18:21.030Z,5.83
2018-12-29T15:20:51.028Z,8.40
2018-12-29T15:23:20.631Z,11.60
2018-12-29T15:25:50.889Z,15.83
2018-12-29T15:28:20.596Z,9.73
2018-12-29T15:30:51.035Z,6.87
2018-12-29T15:33:20.725Z,7.93
2018-12-29T15:35:50.964Z,8.07
2018-12-29T15:38:20.681Z,8.97
2018-12-29T15:40:51.423Z,10.83
2018-12-29T15:43:21.776Z,8.83
2018-12-29T15:45:52.112Z,12.87
2018-12-29T15:48:22.133Z,8.90
2018-12-29T15:50:52.381Z,8.40
2018-12-29T15:53:23.661Z,11.07
2018-12-29T15:55:54.024Z,11.50
2018-12-29T15:58:24.438Z,12.53
2018-12-29T16:00:54.764Z,5.37
2018-12-29T16:03:25.130Z,14.67
2018-12-29T16:05:55.971Z,13.40
2018-12-29T16:08:26.324Z,8.67
2018-12-29T16:10:56.053Z,8.57
2018-12-29T16:13:25.607Z,6.07
2018-12-29T16:15:55.844Z,7.27
2018-12-29T16:18:26.175Z,8.37
2018-12-29T16:20:56.436Z,9.03
2018-12-29T16:23:26.304Z,7.80
2018-12-29T16:25:56.621Z,7.33
2018-12-29T16:28:26.291Z,8.63
2018-12-29T16:30:56.583Z,7.23
2018-12-29T16:33:26.260Z,8.43
2018-12-29T16:35:56.180Z,6.57
2018-12-29T16:38:26.553Z,6.53
2018-12-29T16:40:57.964Z,7.77
2018-12-29T16:43:27.760Z,11.73
2018-12-29T16:45:57.380Z,10.43
2018-12-29T16:48:27.645Z,7.63
2018-12-29T16:50:57.634Z,7.73
2018-12-29T16:53:29.327Z,5.20
2018-12-29T16:55:59.284Z,9.20
2018-12-29T16:58:29.557Z,10.47
2018-12-29T17:00:59.532Z,4.13
2018-12-29T17:03:29.764Z,6.03
2018-12-29T17:05:59.459Z,3.63
2018-12-29T17:08:29.704Z,8.90
2018-12-29T17:10:59.394Z,5.93
2018-12-29T17:13:28.969Z,3.93
2018-12-29T17:15:59.112Z,8.93
2018-12-29T17:18:28.720Z,5.67
2018-12-29T17:20:58.369Z,3.77
2018-12-29T17:23:27.980Z,8.67
2018-12-29T17:25:58.388Z,28.07
2018-12-29T17:28:28.960Z,17.33
2018-12-29T17:30:58.658Z,47.13
2018-12-29T17:33:28.968Z,69.30
2018-12-29T17:35:58.663Z,6.47
2018-12-29T17:38:28.928Z,8.23
2018-12-29T17:40:58.922Z,15.63
2018-12-29T17:43:29.200Z,7.43
2018-12-29T17:45:59.020Z,29.47
2018-12-29T17:48:29.489Z,15.33
2018-12-29T17:50:59.670Z,7.40
2018-12-29T17:53:30.235Z,6.93
2018-12-29T17:56:00.886Z,8.93
2018-12-29T17:58:31.233Z,3.70
2018-12-29T18:01:02.383Z,9.30
2018-12-29T18:03:32.968Z,8.50
2018-12-29T18:06:03.843Z,6.97
2018-12-29T18:08:34.291Z,3.73
2018-12-29T18:11:05.053Z,4.53
2018-12-29T18:13:35.408Z,4.27
2018-12-29T18:16:05.096Z,5.60
2018-12-29T18:18:35.352Z,3.97
2018-12-29T18:21:05.086Z,5.20
2018-12-29T18:23:35.549Z,5.60
2018-12-29T18:26:05.292Z,4.97
2018-12-29T18:28:35.572Z,3.60
2018-12-29T18:31:06.481Z,4.50
2018-12-29T18:33:37.375Z,7.95
2018-12-29T18:36:08.009Z,4.60
2018-12-29T18:38:38.094Z,6.30
2018-12-29T18:41:08.550Z,6.97
2018-12-29T18:43:38.888Z,4.20
2018-12-29T18:46:08.619Z,9.03
2018-12-29T18:48:38.206Z,5.13
2018-12-29T18:51:09.370Z,4.07
2018-12-29T18:53:39.100Z,4.00
2018-12-29T18:56:09.028Z,4.83
2018-12-29T18:58:38.631Z,6.83
2018-12-29T19:01:09.108Z,4.83
2018-12-29T19:03:39.476Z,4.67
2018-12-29T19:06:09.528Z,4.67
2018-12-29T19:08:39.380Z,6.63
2018-12-29T19:11:10.179Z,5.17
2018-12-29T19:13:39.803Z,4.43
2018-12-29T19:16:09.412Z,4.37
2018-12-29T19:18:41.597Z,3.23
2018-12-29T19:21:10.357Z,4.97
2018-12-29T19:23:40.231Z,4.03
2018-12-29T19:26:10.224Z,4.57
2018-12-29T19:28:40.036Z,7.03
2018-12-29T19:31:09.886Z,5.00
2018-12-29T19:33:40.147Z,6.27
2018-12-29T19:36:09.900Z,4.33
2018-12-29T19:38:39.512Z,6.23
2018-12-29T19:41:09.498Z,4.10
2018-12-29T19:43:39.201Z,5.40
2018-12-29T19:46:09.061Z,5.27
2018-12-29T19:48:38.804Z,5.17
2018-12-29T19:51:08.455Z,5.30
2018-12-29T19:53:38.385Z,6.70
2018-12-29T19:56:08.023Z,4.20
2018-12-29T19:58:37.656Z,4.90
2018-12-29T20:01:07.904Z,4.27
2018-12-29T20:03:37.627Z,5.73
2018-12-29T20:06:11.135Z,6.73
2018-12-29T20:08:38.484Z,5.97
2018-12-29T20:11:08.076Z,4.90
2018-12-29T20:13:37.699Z,5.37
2018-12-29T20:16:07.312Z,5.27
2018-12-29T20:18:37.011Z,4.30
2018-12-29T20:21:06.623Z,4.17
2018-12-29T20:23:36.657Z,4.53
2018-12-29T20:26:06.250Z,5.30
2018-12-29T20:28:36.844Z,4.13
2018-12-29T20:31:07.184Z,4.00
2018-12-29T20:33:37.758Z,4.70
2018-12-29T20:36:08.072Z,5.53
2018-12-29T20:38:37.781Z,4.30
2018-12-29T20:41:07.386Z,5.37
2018-12-29T20:43:37.960Z,4.83
2018-12-29T20:46:08.307Z,5.53
2018-12-29T20:48:38.807Z,6.47
2018-12-29T20:51:08.540Z,5.53
2018-12-29T20:53:38.815Z,5.37
2018-12-29T20:56:09.339Z,5.40
2018-12-29T20:58:39.720Z,6.17
2018-12-29T21:01:09.416Z,7.57
2018-12-29T21:03:39.681Z,6.47
2018-12-29T21:06:10.053Z,6.27
2018-12-29T21:08:39.831Z,6.37
2018-12-29T21:11:10.094Z,8.13
2018-12-29T21:13:39.772Z,5.83
2018-12-29T21:16:10.056Z,6.63
2018-12-29T21:18:39.873Z,8.17
2018-12-29T21:21:09.652Z,6.43
2018-12-29T21:23:39.896Z,8.37
2018-12-29T21:26:09.619Z,10.03
2018-12-29T21:28:39.883Z,5.93
2018-12-29T21:31:09.630Z,7.47
2018-12-29T21:33:40.084Z,7.10
2018-12-29T21:36:10.533Z,8.97
2018-12-29T21:38:40.219Z,7.87
2018-12-29T21:41:09.922Z,8.00
2018-12-29T21:43:39.472Z,9.00
2018-12-29T21:46:09.305Z,7.73
2018-12-29T21:48:39.038Z,8.13
2018-12-29T21:51:08.672Z,8.43
2018-12-29T21:53:38.243Z,8.70
2018-12-29T21:56:09.292Z,9.73
2018-12-29T21:58:39.273Z,9.10
2018-12-29T22:01:09.004Z,9.97
2018-12-29T22:03:38.594Z,8.00
2018-12-29T22:06:09.045Z,8.33
2018-12-29T22:08:39.413Z,10.13
2018-12-29T22:11:09.596Z,12.10
2018-12-29T22:13:39.221Z,10.17
2018-12-29T22:16:10.294Z,10.27
2018-12-29T22:18:40.644Z,9.10
2018-12-29T22:21:10.873Z,10.83
2018-12-29T22:23:40.641Z,11.50
2018-12-29T22:26:10.219Z,11.53
2018-12-29T22:28:40.493Z,12.67
2018-12-29T22:31:10.832Z,10.30
2018-12-29T22:33:40.537Z,11.10
2018-12-29T22:36:10.771Z,10.83
2018-12-29T22:38:41.119Z,9.97
2018-12-29T22:41:10.795Z,12.73
2018-12-29T22:43:40.388Z,11.17
2018-12-29T22:46:10.636Z,10.63
2018-12-29T22:48:41.046Z,11.30
2018-12-29T22:51:11.708Z,9.43
2018-12-29T22:53:41.488Z,11.67
2018-12-29T22:56:11.716Z,11.60
2018-12-29T22:58:41.451Z,12.03
2018-12-29T23:01:11.695Z,12.80
2018-12-29T23:03:41.372Z,12.53
2018-12-29T23:06:11.620Z,12.73
2018-12-29T23:08:41.993Z,14.87
2018-12-29T23:11:12.588Z,11.40
2018-12-29T23:13:42.316Z,11.43
2018-12-29T23:16:12.556Z,14.50
2018-12-29T23:18:42.605Z,12.73
2018-12-29T23:21:12.824Z,12.80
2018-12-29T23:23:42.539Z,12.70
2018-12-29T23:26:12.764Z,14.13
2018-12-29T23:28:43.097Z,15.90
2018-12-29T23:31:13.417Z,14.63
2018-12-29T23:33:43.163Z,14.40
2018-12-29T23:36:13.140Z,15.10
2018-12-29T23:38:42.708Z,17.07
2018-12-29T23:41:12.962Z,21.20
2018-12-29T23:43:43.123Z,15.43
2018-12-29T23:46:13.397Z,17.93
2018-12-29T23:48:43.060Z,17.27
2018-12-29T23:51:13.334Z,14.17
2018-12-29T23:53:43.016Z,17.93
2018-12-29T23:56:13.578Z,16.03
2018-12-29T23:58:43.596Z,15.90
